Time;durP1;ratioP1;P1;durP2;ratioP2;P2;SDS_P1;SDS_P2;PMS_P1;PMS_P2;Temp;Humidity;BMP_temperature;BMP_pressure;BME280_temperature;BME280_humidity;BME280_pressure;Samples;Min_cycle;Max_cycle;Signal;HPM_P1;HPM_P2
2023/12/20 00:01:50;;;;;;;9.07;4.25;;;;;;;5.55;100.00;99823.44;12188031;19;20010;-81
2023/12/20 00:05:52;;;;;;;8.93;4.55;;;;;;;5.54;100.00;99819.03;12213112;19;20477;-81
2023/12/20 00:09:54;;;;;;;6.73;3.57;;;;;;;5.49;100.00;99806.84;12212969;19;20010;-82
2023/12/20 00:13:56;;;;;;;8.45;4.07;;;;;;;5.54;100.00;99808.09;12180998;19;20625;-81
2023/12/20 00:17:58;;;;;;;6.90;3.80;;;;;;;5.53;100.00;99809.97;12204220;19;20003;-79
2023/12/20 00:22:01;;;;;;;7.90;3.50;;;;;;;5.49;100.00;99806.00;12201069;19;20039;-82
2023/12/20 00:26:03;;;;;;;7.63;3.55;;;;;;;5.51;100.00;99805.81;12218989;19;19998;-78
2023/12/20 00:30:05;;;;;;;7.40;3.50;;;;;;;5.46;100.00;99799.06;12213965;19;20019;-81
2023/12/20 00:34:07;;;;;;;9.40;4.03;;;;;;;5.43;100.00;99802.25;12202410;19;20038;-83
2023/12/20 00:38:11;;;;;;;5.80;2.15;;;;;;;5.43;100.00;99791.31;12181286;19;20035;-82
2023/12/20 00:42:12;;;;;;;7.47;3.35;;;;;;;5.46;100.00;99790.03;12211454;19;20027;-80
2023/12/20 00:46:14;;;;;;;6.13;2.72;;;;;;;5.45;100.00;99788.38;12213283;19;20048;-80
2023/12/20 00:50:17;;;;;;;7.38;3.03;;;;;;;5.42;100.00;99780.63;12187163;19;20031;-82
2023/12/20 00:54:19;;;;;;;5.87;2.97;;;;;;;5.43;100.00;99783.13;12207373;19;20431;-82
2023/12/20 00:58:20;;;;;;;6.53;3.33;;;;;;;5.39;100.00;99770.13;12202666;19;20350;-82
2023/12/20 01:02:22;;;;;;;7.45;3.00;;;;;;;5.37;100.00;99767.59;12208620;19;20010;-83
2023/12/20 01:06:24;;;;;;;6.85;3.42;;;;;;;5.38;100.00;99774.72;12203490;19;20090;-83
2023/12/20 01:10:28;;;;;;;11.10;3.93;;;;;;;5.38;100.00;99772.00;12186714;19;20002;-82
2023/12/20 01:14:30;;;;;;;10.35;3.65;;;;;;;5.38;100.00;99773.88;12208626;19;20251;-82
2023/12/20 01:18:32;;;;;;;7.85;3.50;;;;;;;5.39;100.00;99765.47;12205606;19;21613;-81
2023/12/20 01:22:35;;;;;;;6.85;3.10;;;;;;;5.36;100.00;99760.47;12183089;19;20480;-81
2023/12/20 01:26:37;;;;;;;6.50;2.78;;;;;;;5.33;100.00;99766.34;12206088;19;20648;-81
2023/12/20 01:30:39;;;;;;;8.15;2.53;;;;;;;5.32;100.00;99764.66;12205992;19;20006;-81
2023/12/20 01:34:41;;;;;;;6.03;2.60;;;;;;;5.31;100.00;99763.00;12183018;19;20008;-81
2023/12/20 01:38:43;;;;;;;7.05;2.63;;;;;;;5.31;100.00;99767.63;12205152;19;20006;-80
2023/12/20 01:42:44;;;;;;;5.95;2.42;;;;;;;5.28;100.00;99774.34;12200074;19;20011;-81
2023/12/20 01:46:47;;;;;;;4.32;2.08;;;;;;;5.27;100.00;99775.41;12183524;19;20014;-81
2023/12/20 01:50:49;;;;;;;6.60;2.65;;;;;;;5.29;100.00;99770.56;12203980;19;20518;-81
2023/12/20 01:54:51;;;;;;;5.68;2.20;;;;;;;5.30;100.00;99769.53;12203849;19;20011;-80
2023/12/20 01:58:53;;;;;;;5.13;1.90;;;;;;;5.34;100.00;99776.22;12186054;19;20007;-81
2023/12/20 02:02:55;;;;;;;5.43;2.45;;;;;;;5.32;100.00;99770.13;12197938;19;20077;-81
2023/12/20 02:06:59;;;;;;;4.40;2.00;;;;;;;5.31;100.00;99782.13;12204043;19;20006;-82
2023/12/20 02:11:01;;;;;;;8.77;2.67;;;;;;;5.32;100.00;99780.22;12182466;19;20259;-81
2023/12/20 02:15:04;;;;;;;4.27;2.30;;;;;;;5.34;100.00;99770.75;12204881;19;20521;-83
2023/12/20 02:19:13;;;;;;;5.22;2.33;;;;;;;5.32;100.00;99770.13;12205357;19;20010;-80
2023/12/20 02:23:15;;;;;;;6.65;2.35;;;;;;;5.34;100.00;99772.66;12181438;19;20007;-82
2023/12/20 02:27:19;;;;;;;4.30;1.80;;;;;;;5.35;100.00;99779.78;12201715;19;20013;-82
2023/12/20 02:31:22;;;;;;;4.57;1.90;;;;;;;5.28;100.00;99752.50;12195317;19;20011;-82
2023/12/20 02:35:24;;;;;;;;;;;;;;;5.29;100.00;99765.09;12202974;19;20039;-80
2023/12/20 02:39:25;;;;;;;3.00;1.67;;;;;;;5.24;100.00;99751.25;12205544;19;19917;-81
2023/12/20 02:43:27;;;;;;;3.40;1.75;;;;;;;5.27;100.00;99764.50;12180691;19;20690;-82
2023/12/20 02:47:29;;;;;;;3.47;1.67;;;;;;;5.21;100.00;99765.34;12210042;19;20003;-81
2023/12/20 02:51:31;;;;;;;3.75;1.70;;;;;;;5.25;100.00;99761.97;12207763;19;20002;-81
2023/12/20 02:55:33;;;;;;;4.43;2.00;;;;;;;5.27;100.00;99755.47;12183321;19;20027;-81
2023/12/20 02:59:35;;;;;;;5.40;2.63;;;;;;;5.34;100.00;99762.56;12204688;19;20538;-83
2023/12/20 03:03:36;;;;;;;5.57;2.85;;;;;;;5.36;100.00;99765.91;12199405;19;20007;-81
2023/12/20 03:07:38;;;;;;;5.28;2.47;;;;;;;5.34;100.00;99764.47;12181843;19;20108;-83
2023/12/20 03:11:40;;;;;;;7.10;2.70;;;;;;;5.33;100.00;99741.75;12202574;19;20018;-82
2023/12/20 03:15:42;;;;;;;6.93;2.88;;;;;;;5.36;100.00;99749.53;12203074;19;20359;-84
2023/12/20 03:19:44;;;;;;;5.17;2.30;;;;;;;5.34;100.00;99762.56;12183410;19;20035;-83
2023/12/20 03:23:46;;;;;;;7.00;2.95;;;;;;;5.37;100.00;99773.06;12198058;19;20043;-82
2023/12/20 03:27:47;;;;;;;7.78;2.53;;;;;;;5.36;100.00;99782.31;12219678;19;20011;-82
2023/12/20 03:31:50;;;;;;;6.15;3.10;;;;;;;5.39;100.00;99770.94;12187555;19;20649;-82
2023/12/20 03:35:51;;;;;;;5.55;2.40;;;;;;;5.42;100.00;99770.50;12199989;19;20017;-83
2023/12/20 03:39:53;;;;;;;4.68;2.60;;;;;;;5.46;100.00;99771.75;12198221;19;20503;-82
2023/12/20 03:43:55;;;;;;;5.07;2.83;;;;;;;5.46;100.00;99771.75;12176365;19;20006;-81
2023/12/20 03:47:56;;;;;;;6.03;2.50;;;;;;;5.45;100.00;99770.06;12210273;19;20006;-83
2023/12/20 03:51:58;;;;;;;4.30;2.30;;;;;;;5.50;100.00;99772.16;12220900;19;20010;-83
2023/12/20 03:56:01;;;;;;;4.90;2.55;;;;;;;5.48;100.00;99774.28;12190156;19;20013;-84
2023/12/20 04:00:03;;;;;;;7.13;2.63;;;;;;;5.47;100.00;99783.50;12204765;19;20011;-84
2023/12/20 04:04:13;;;;;;;6.05;2.90;;;;;;;5.49;100.00;99781.41;12201009;19;20027;-85
2023/12/20 04:08:15;;;;;;;7.53;3.17;;;;;;;5.50;100.00;99791.28;12175972;19;20035;-81
2023/12/20 04:12:17;;;;;;;7.83;3.63;;;;;;;5.51;100.00;99790.25;12201249;19;20087;-84
2023/12/20 04:16:19;;;;;;;7.15;2.88;;;;;;;5.56;100.00;99786.84;12213289;19;20014;-83
2023/12/20 04:20:20;;;;;;;10.52;3.13;;;;;;;5.58;100.00;99776.53;12192424;19;20404;-85
2023/12/20 04:24:22;;;;;;;7.70;3.25;;;;;;;5.60;100.00;99793.56;12212102;19;20010;-86
2023/12/20 04:28:25;;;;;;;7.80;3.67;;;;;;;5.65;100.00;99804.66;12193086;19;20806;-84
2023/12/20 04:32:27;;;;;;;9.32;3.78;;;;;;;5.64;100.00;99811.19;12211664;19;20419;-85
2023/12/20 04:36:29;;;;;;;9.65;3.80;;;;;;;5.70;100.00;99799.38;12211088;19;20014;-81
2023/12/20 04:40:31;;;;;;;7.25;3.28;;;;;;;5.77;100.00;99811.16;12194699;19;20010;-85
2023/12/20 04:44:33;;;;;;;7.55;3.20;;;;;;;5.75;100.00;99813.25;12212631;19;20007;-84
2023/12/20 04:48:35;;;;;;;5.60;3.30;;;;;;;5.78;100.00;99812.81;12214746;19;20018;-84
2023/12/20 04:52:37;;;;;;;7.07;3.57;;;;;;;5.79;100.00;99817.22;12195472;19;20006;-83
2023/12/20 04:56:39;;;;;;;9.45;3.10;;;;;;;5.79;100.00;99828.16;12216075;19;20019;-85
2023/12/20 05:00:41;;;;;;;8.10;3.63;;;;;;;5.74;100.00;99833.47;12230136;19;20013;-84
2023/12/20 05:04:43;;;;;;;10.27;3.13;;;;;;;5.75;100.00;99839.75;12210074;19;22145;-85
2023/12/20 05:08:44;;;;;;;9.15;3.20;;;;;;;5.70;100.00;99837.66;12223894;19;20003;-86
2023/12/20 05:12:46;;;;;;;8.20;3.38;;;;;;;5.44;100.00;99838.59;12218907;19;20046;-83
2023/12/20 05:16:48;;;;;;;7.10;3.25;;;;;;;5.25;100.00;99851.28;12202944;19;20084;-82
2023/12/20 05:20:51;;;;;;;8.13;3.33;;;;;;;5.16;100.00;99858.03;12213201;19;20007;-83
2023/12/20 05:24:55;;;;;;;7.88;3.60;;;;;;;5.05;100.00;99859.50;12217463;19;20331;-84
2023/12/20 05:28:57;;;;;;;6.75;3.63;;;;;;;4.99;100.00;99858.47;12191969;19;20002;-83
2023/12/20 05:32:58;;;;;;;9.38;4.05;;;;;;;4.93;100.00;99867.50;12211128;19;20086;-84
2023/12/20 05:37:01;;;;;;;7.90;4.03;;;;;;;4.93;100.00;99875.69;12214801;19;20119;-84
2023/12/20 05:41:03;;;;;;;;;;;;;;;4.93;100.00;99886.63;12191315;19;20402;-85
2023/12/20 05:45:06;;;;;;;8.93;3.60;;;;;;;4.96;100.00;99882.63;12208045;19;19950;-84
2023/12/20 05:49:07;;;;;;;8.82;3.72;;;;;;;4.99;100.00;99893.97;12216891;19;20003;-83
2023/12/20 05:53:09;;;;;;;8.20;3.70;;;;;;;4.94;100.00;99893.78;12205336;19;20038;-84
2023/12/20 05:57:11;;;;;;;8.82;3.50;;;;;;;4.82;100.00;99892.75;12230773;19;20022;-83
2023/12/20 06:01:14;;;;;;;8.18;3.45;;;;;;;4.70;100.00;99898.00;12220570;19;20010;-85
2023/12/20 06:05:16;;;;;;;7.55;3.40;;;;;;;4.60;100.00;99902.16;12183608;19;20003;-83
2023/12/20 06:09:19;;;;;;;8.07;3.17;;;;;;;4.53;100.00;99902.19;12200599;19;20011;-84
2023/12/20 06:13:21;;;;;;;6.03;3.25;;;;;;;4.50;100.00;99911.63;12201477;19;20019;-85
2023/12/20 06:17:22;;;;;;;6.50;2.75;;;;;;;4.47;100.00;99903.00;12200113;19;20034;-83
2023/12/20 06:21:24;;;;;;;5.63;2.55;;;;;;;4.44;100.00;99906.16;12204151;19;20006;-85
2023/12/20 06:25:26;;;;;;;6.53;2.83;;;;;;;4.48;100.00;99916.44;12185628;19;20018;-84
2023/12/20 06:29:28;;;;;;;4.43;2.10;;;;;;;4.49;100.00;99917.25;12204149;19;20010;-84
2023/12/20 06:33:31;;;;;;;5.22;2.60;;;;;;;4.39;100.00;99914.94;12202105;19;20010;-84
2023/12/20 06:37:32;;;;;;;5.10;2.35;;;;;;;4.27;100.00;99928.34;12181300;19;20006;-84
2023/12/20 06:41:34;;;;;;;6.53;3.05;;;;;;;4.16;100.00;99928.09;12199674;19;20092;-85
2023/12/20 06:45:36;;;;;;;6.20;3.10;;;;;;;4.06;100.00;99926.63;12199397;19;20403;-85
2023/12/20 06:49:37;;;;;;;7.35;3.25;;;;;;;3.98;100.00;99917.78;12176351;19;19998;-84
2023/12/20 06:53:40;;;;;;;10.93;4.57;;;;;;;3.92;100.00;99905.78;12199442;19;20010;-85
2023/12/20 06:57:41;;;;;;;6.18;3.13;;;;;;;3.88;100.00;99920.88;12199696;19;20010;-84
2023/12/20 07:01:48;;;;;;;10.23;3.47;;;;;;;3.83;100.00;99939.72;12179800;19;20030;-84
2023/12/20 07:05:50;;;;;;;8.90;3.45;;;;;;;3.78;100.00;99931.34;12216035;19;20026;-84
2023/12/20 07:09:51;;;;;;;11.32;2.65;;;;;;;3.77;100.00;99925.03;12245600;19;20018;-85
2023/12/20 07:13:54;;;;;;;9.40;3.53;;;;;;;3.80;100.00;99932.78;12187200;19;20027;-85
2023/12/20 07:17:56;;;;;;;7.07;2.70;;;;;;;3.77;100.00;99932.38;12206609;19;20009;-86
2023/12/20 07:21:57;;;;;;;9.73;3.40;;;;;;;3.77;100.00;99927.75;12201162;19;20024;-86
2023/12/20 07:25:59;;;;;;;11.75;3.28;;;;;;;3.76;100.00;99927.97;12183050;19;20828;-86
2023/12/20 07:30:01;;;;;;;5.97;3.07;;;;;;;3.79;100.00;99933.00;12210708;19;20002;-85
2023/12/20 07:34:03;;;;;;;5.95;2.88;;;;;;;3.82;100.00;99943.50;12206634;19;20013;-86
2023/12/20 07:38:06;;;;;;;10.25;3.22;;;;;;;3.80;100.00;99948.31;12174967;19;20039;-83
2023/12/20 07:42:08;;;;;;;8.18;3.08;;;;;;;3.80;100.00;99945.59;12194214;19;20018;-84
2023/12/20 07:46:10;;;;;;;7.00;2.53;;;;;;;3.89;100.00;99961.56;12186017;19;20011;-84
2023/12/20 07:50:12;;;;;;;7.07;2.93;;;;;;;4.13;100.00;99958.50;12184240;19;20023;-85
2023/12/20 07:54:14;;;;;;;6.13;2.72;;;;;;;4.30;100.00;99957.09;12202865;19;20010;-85
2023/12/20 07:58:16;;;;;;;12.07;3.30;;;;;;;4.38;100.00;99965.13;12207207;19;20035;-84
2023/12/20 08:02:18;;;;;;;7.25;2.83;;;;;;;4.51;100.00;99965.13;12191858;19;20041;-85
2023/12/20 08:06:21;;;;;;;9.45;2.90;;;;;;;4.66;100.00;99958.66;12208053;19;20072;-84
2023/12/20 08:10:24;;;;;;;5.80;2.60;;;;;;;4.75;100.00;99960.97;12193567;19;20015;-85
2023/12/20 08:14:25;;;;;;;4.28;2.13;;;;;;;4.76;100.00;99972.75;12221914;19;20061;-86
2023/12/20 08:18:27;;;;;;;4.95;2.53;;;;;;;4.65;100.00;99967.91;12206616;19;20010;-86
2023/12/20 08:22:29;;;;;;;6.83;2.80;;;;;;;4.56;100.00;99961.78;12181219;19;20041;-84
2023/12/20 08:26:32;;;;;;;9.65;2.83;;;;;;;4.59;100.00;99976.91;12206477;19;20003;-86
2023/12/20 08:30:34;;;;;;;7.45;2.55;;;;;;;4.80;100.00;99990.38;12201078;19;20094;-85
2023/12/20 08:34:36;;;;;;;6.20;2.90;;;;;;;4.99;100.00;99991.44;12178247;19;20007;-86
2023/12/20 08:38:37;;;;;;;10.20;2.93;;;;;;;5.11;100.00;99986.19;12202507;19;20028;-85
2023/12/20 08:42:39;;;;;;;5.18;2.15;;;;;;;5.14;100.00;99991.25;12199905;19;20003;-86
2023/12/20 08:46:41;;;;;;;7.07;2.28;;;;;;;5.16;100.00;100000.91;12180114;19;20045;-86
2023/12/20 08:50:43;;;;;;;5.35;2.47;;;;;;;5.20;100.00;99993.97;12202949;19;20014;-86
2023/12/20 08:54:45;;;;;;;5.82;2.55;;;;;;;5.18;100.00;99998.00;12196814;19;20007;-86
2023/12/20 08:58:47;;;;;;;7.75;2.58;;;;;;;5.28;100.00;99992.09;12180170;19;20014;-84
2023/12/20 09:02:49;;;;;;;10.55;2.63;;;;;;;5.38;100.00;99987.88;12208797;19;20010;-86
2023/12/20 09:06:50;;;;;;;6.25;1.90;;;;;;;5.49;100.00;99994.59;12216491;19;20027;-84
2023/12/20 09:10:52;;;;;;;7.75;2.17;;;;;;;5.49;100.00;99994.59;12198450;19;20010;-85
2023/12/20 09:14:55;;;;;;;7.30;2.28;;;;;;;5.53;100.00;99998.56;12220147;19;20030;-86
2023/12/20 09:18:57;;;;;;;6.20;2.60;;;;;;;5.59;100.00;99991.41;12220952;19;20019;-85
2023/12/20 09:22:59;;;;;;;6.60;2.67;;;;;;;5.67;100.00;99992.03;12208831;19;20017;-85
2023/12/20 09:27:02;;;;;;;4.47;1.92;;;;;;;5.72;100.00;100000.44;12231059;19;20007;-85
2023/12/20 09:31:04;;;;;;;;;;;;;;;5.72;100.00;99994.97;12229714;19;20017;-85
2023/12/20 09:35:08;;;;;;;7.50;2.88;;;;;;;5.75;100.00;99999.19;12215530;19;19938;-86
2023/12/20 09:39:10;;;;;;;11.85;2.60;;;;;;;5.77;100.00;99990.75;12228469;19;20022;-86
2023/12/20 09:43:18;;;;;;;6.45;3.17;;;;;;;5.83;100.00;99984.41;12223858;19;20017;-86
2023/12/20 09:47:23;;;;;;;11.70;2.75;;;;;;;5.96;100.00;99983.59;12202802;19;20010;-85
2023/12/20 09:51:26;;;;;;;6.13;2.30;;;;;;;6.03;100.00;99978.94;12231791;19;20064;-85
2023/12/20 09:55:29;;;;;;;4.45;2.40;;;;;;;6.14;100.00;100003.72;12209388;19;20021;-85
2023/12/20 09:59:31;;;;;;;5.65;3.15;;;;;;;6.12;100.00;99991.31;12225345;19;20017;-83
2023/12/20 10:03:34;;;;;;;8.70;2.78;;;;;;;6.19;100.00;99994.88;12232821;19;20054;-84
2023/12/20 10:07:36;;;;;;;9.02;2.90;;;;;;;6.25;100.00;100002.22;12212568;19;20007;-84
2023/12/20 10:11:39;;;;;;;8.82;2.85;;;;;;;6.34;100.00;100000.91;12228242;19;20010;-84
2023/12/20 10:15:40;;;;;;;;;;;;;;;6.39;100.00;99990.16;12231596;19;20019;-85
2023/12/20 10:19:44;;;;;;;5.97;2.08;;;;;;;6.47;100.00;99980.00;12213010;19;19930;-84
2023/12/20 10:23:46;;;;;;;4.00;2.23;;;;;;;6.52;100.00;99983.75;12234102;19;20059;-83
2023/12/20 10:27:50;;;;;;;5.32;1.92;;;;;;;6.50;100.00;99972.19;12250075;19;20031;-85
2023/12/20 10:31:57;;;;;;;11.13;2.17;;;;;;;6.57;100.00;99972.13;12196296;19;20042;-85
2023/12/20 10:36:00;;;;;;;5.60;2.00;;;;;;;6.60;100.00;99968.97;12220747;19;20024;-84
2023/12/20 10:40:03;;;;;;;7.47;2.03;;;;;;;6.62;100.00;99959.47;12224520;19;19998;-83
2023/12/20 10:44:06;;;;;;;7.55;2.25;;;;;;;6.71;100.00;99959.22;12204173;19;20010;-84
2023/12/20 10:48:10;;;;;;;5.15;2.28;;;;;;;6.81;100.00;99954.94;12224515;19;20349;-84
2023/12/20 10:52:13;;;;;;;7.57;2.58;;;;;;;6.85;100.00;99949.84;12228958;19;20074;-86
2023/12/20 10:56:18;;;;;;;4.73;1.90;;;;;;;6.89;100.00;99952.97;12201936;19;20007;-85
2023/12/20 11:00:23;;;;;;;5.63;1.67;;;;;;;6.99;100.00;99962.38;12225363;19;20011;-84
2023/12/20 11:04:36;;;;;;;7.07;2.13;;;;;;;6.92;100.00;99950.63;12208310;19;20002;-85
2023/12/20 11:08:53;;;;;;;10.68;2.78;;;;;;;6.94;100.00;99947.69;12227347;19;20010;-83
2023/12/20 11:13:09;;;;;;;6.13;2.17;;;;;;;6.96;100.00;99942.78;12230318;19;20006;-83
2023/12/20 11:17:16;;;;;;;12.65;2.80;;;;;;;7.03;100.00;99949.91;12207441;19;20038;-85
2023/12/20 11:21:19;;;;;;;10.18;2.20;;;;;;;6.98;100.00;99937.94;12229349;19;20427;-84
2023/12/20 11:25:21;;;;;;;;;;;;;;;7.00;100.00;99930.34;12232338;19;20011;-84
2023/12/20 11:29:36;;;;;;;5.45;1.95;;;;;;;7.01;100.00;99929.28;12214141;19;19929;-84
2023/12/20 11:33:39;;;;;;;7.60;2.25;;;;;;;7.04;100.00;99931.56;12229793;19;20015;-85
2023/12/20 11:37:42;;;;;;;5.90;2.28;;;;;;;7.03;100.00;99932.63;12207477;19;20020;-83
2023/12/20 11:41:45;;;;;;;10.45;2.17;;;;;;;7.06;100.00;99937.66;12230596;19;20007;-85
2023/12/20 11:45:50;;;;;;;7.35;2.30;;;;;;;7.02;100.00;99934.53;12227290;19;20002;-84
2023/12/20 11:49:52;;;;;;;8.95;2.20;;;;;;;7.04;100.00;99934.31;12206935;19;20002;-84
2023/12/20 11:53:54;;;;;;;5.15;2.45;;;;;;;7.03;100.00;99929.91;12222510;19;20015;-84
2023/12/20 11:57:56;;;;;;;6.05;3.08;;;;;;;7.00;100.00;99930.34;12222023;19;20021;-84
2023/12/20 12:02:00;;;;;;;8.77;2.67;;;;;;;7.02;100.00;99929.06;12199768;19;20006;-85
2023/12/20 12:06:04;;;;;;;5.15;2.15;;;;;;;6.98;100.00;99924.25;12221405;19;20006;-84
2023/12/20 12:10:07;;;;;;;6.50;2.40;;;;;;;6.94;100.00;99932.06;12226314;19;20003;-85
2023/12/20 12:14:09;;;;;;;;;;;;;;;6.94;100.00;99931.25;12197944;19;20015;-86
2023/12/20 12:18:16;;;;;;;9.15;2.60;;;;;;;6.91;100.00;99937.16;12221248;19;19977;-84
2023/12/20 12:22:19;;;;;;;8.63;2.53;;;;;;;6.92;100.00;99939.66;12219692;19;20554;-85
2023/12/20 12:26:25;;;;;;;11.45;3.42;;;;;;;6.87;100.00;99947.72;12204428;19;20105;-83
2023/12/20 12:30:27;;;;;;;8.82;3.17;;;;;;;6.92;100.00;99928.72;12244652;19;20021;-83
2023/12/20 12:34:36;;;;;;;8.27;2.50;;;;;;;6.96;100.00;99910.78;12225952;19;20014;-84
2023/12/20 12:38:38;;;;;;;9.93;2.50;;;;;;;7.04;100.00;99906.91;12249200;19;20040;-84
2023/12/20 12:42:43;;;;;;;7.22;2.53;;;;;;;7.18;100.00;99897.50;12241201;19;20039;-84
2023/12/20 12:46:50;;;;;;;8.98;3.00;;;;;;;7.38;100.00;99882.78;12224192;19;19999;-83
2023/12/20 12:50:54;;;;;;;8.50;2.92;;;;;;;7.62;100.00;99870.88;12247693;19;20041;-82
2023/12/20 12:54:59;;;;;;;5.68;2.15;;;;;;;7.75;100.00;99867.97;12233063;19;20011;-84
2023/12/20 12:59:01;;;;;;;5.43;2.20;;;;;;;7.72;100.00;99868.44;12233969;19;20023;-83
2023/12/20 13:03:03;;;;;;;12.30;3.00;;;;;;;7.74;100.00;99866.31;12259915;19;20037;-82
2023/12/20 13:07:05;;;;;;;8.90;3.03;;;;;;;7.68;100.00;99848.03;12247598;19;20010;-82
2023/12/20 13:11:07;;;;;;;5.80;2.60;;;;;;;7.85;100.00;99830.91;12221125;19;20367;-84
2023/12/20 13:15:09;;;;;;;5.03;2.47;;;;;;;7.75;100.00;99818.59;12237395;19;20014;-84
2023/12/20 13:19:11;;;;;;;7.25;3.05;;;;;;;7.62;100.00;99810.56;12239347;19;20006;-84
2023/12/20 13:23:13;;;;;;;7.17;2.93;;;;;;;7.74;100.00;99803.22;12222605;19;20063;-82
2023/12/20 13:27:15;;;;;;;9.50;2.60;;;;;;;7.84;100.00;99796.34;12241012;19;20006;-84
2023/12/20 13:31:17;;;;;;;8.32;2.78;;;;;;;8.03;100.00;99795.22;12242941;19;20010;-83
2023/12/20 13:35:19;;;;;;;11.80;2.75;;;;;;;8.32;100.00;99806.38;12219034;19;20010;-84
2023/12/20 13:39:21;;;;;;;4.77;2.20;;;;;;;8.31;100.00;99791.81;12238071;19;20018;-83
2023/12/20 13:43:24;;;;;;;7.13;1.83;;;;;;;8.27;100.00;99789.78;12245165;19;20037;-83
2023/12/20 13:47:26;;;;;;;5.00;2.22;;;;;;;8.16;100.00;99795.00;12224186;19;20025;-82
2023/12/20 13:51:28;;;;;;;6.33;2.23;;;;;;;8.12;100.00;99785.59;12221948;19;20039;-83
2023/12/20 13:55:30;;;;;;;5.70;1.90;;;;;;;8.02;100.00;99781.72;12219903;19;20006;-84
2023/12/20 13:59:32;;;;;;;5.23;1.80;;;;;;;7.98;100.00;99787.69;12192714;19;20272;-83
2023/12/20 14:03:34;;;;;;;11.27;2.72;;;;;;;8.05;100.00;99781.25;12220274;19;20002;-84
2023/12/20 14:07:36;;;;;;;5.95;2.20;;;;;;;8.11;100.00;99807.75;12199734;19;20011;-83
2023/12/20 14:11:41;;;;;;;7.95;3.65;;;;;;;8.01;100.00;99811.06;12218043;19;20007;-84
2023/12/20 14:15:42;;;;;;;6.35;2.38;;;;;;;7.92;100.00;99794.09;12227124;19;20014;-83
2023/12/20 14:19:44;;;;;;;7.57;1.88;;;;;;;7.86;100.00;99802.44;12207516;19;20014;-82
2023/12/20 14:23:46;;;;;;;4.68;2.17;;;;;;;7.78;100.00;99795.34;12221008;19;20011;-83
2023/12/20 14:27:50;;;;;;;7.13;2.08;;;;;;;7.74;100.00;99805.97;12223195;19;20010;-84
2023/12/20 14:31:52;;;;;;;12.37;1.97;;;;;;;7.75;100.00;99804.88;12240095;19;21393;-84
2023/12/20 14:35:54;;;;;;;6.43;1.87;;;;;;;7.77;100.00;99799.19;12249605;19;19999;-83
2023/12/20 14:39:56;;;;;;;4.07;1.77;;;;;;;7.60;100.00;99798.13;12222159;19;20651;-83
2023/12/20 14:43:59;;;;;;;9.23;2.05;;;;;;;7.49;100.00;99795.09;12218835;19;20052;-85
2023/12/20 14:48:02;;;;;;;4.68;1.92;;;;;;;7.50;100.00;99790.47;12230496;19;20014;-84
2023/12/20 14:52:04;;;;;;;7.75;2.30;;;;;;;7.57;100.00;99788.47;12220130;19;20014;-82
2023/12/20 14:56:09;;;;;;;9.73;2.15;;;;;;;7.60;100.00;99793.47;12202063;19;20006;-84
2023/12/20 15:00:16;;;;;;;8.10;1.83;;;;;;;7.67;100.00;99796.97;12226984;19;20011;-84
2023/12/20 15:04:18;;;;;;;4.18;2.05;;;;;;;7.67;100.00;99810.66;12224935;19;20041;-85
2023/12/20 15:08:23;;;;;;;5.72;1.70;;;;;;;7.56;100.00;99800.50;12205292;19;20067;-84
2023/12/20 15:12:25;;;;;;;6.35;1.58;;;;;;;7.44;100.00;99797.69;12227735;19;20033;-84
2023/12/20 15:16:28;;;;;;;4.33;1.70;;;;;;;7.33;100.00;99795.72;12228976;19;20014;-85
2023/12/20 15:20:29;;;;;;;6.00;2.63;;;;;;;7.19;100.00;99788.72;12205115;19;20007;-85
2023/12/20 15:24:38;;;;;;;5.32;1.45;;;;;;;7.20;100.00;99774.78;12222466;19;20010;-85
2023/12/20 15:28:40;;;;;;;5.97;1.80;;;;;;;7.10;100.00;99776.38;12205851;19;20031;-87
2023/12/20 15:32:42;;;;;;;5.87;1.50;;;;;;;7.10;100.00;99766.25;12226104;19;20045;-85
2023/12/20 15:36:44;;;;;;;10.00;1.45;;;;;;;7.04;100.00;99772.66;12206810;19;20002;-86
2023/12/20 15:40:46;;;;;;;4.67;1.13;;;;;;;7.03;100.00;99766.34;12189177;19;20019;-85
2023/12/20 15:44:47;;;;;;;6.93;1.60;;;;;;;6.99;100.00;99762.38;12203484;19;20006;-84
2023/12/20 15:48:51;;;;;;;7.40;1.67;;;;;;;6.94;100.00;99767.69;12215949;19;20021;-85
2023/12/20 15:52:53;;;;;;;6.65;1.60;;;;;;;6.95;100.00;99768.53;12192591;19;20039;-86
2023/12/20 15:56:55;;;;;;;7.03;2.00;;;;;;;6.94;100.00;99777.81;12211660;19;20351;-84
2023/12/20 16:00:57;;;;;;;9.10;1.57;;;;;;;6.93;100.00;99770.66;12203963;19;20010;-85
2023/12/20 16:04:59;;;;;;;5.93;1.43;;;;;;;6.93;100.00;99774.25;12184232;19;20002;-86
2023/12/20 16:09:02;;;;;;;11.30;2.00;;;;;;;6.97;100.00;99774.63;12216544;19;20347;-85
2023/12/20 16:13:04;;;;;;;5.28;1.85;;;;;;;6.91;100.00;99776.38;12220094;19;20514;-84
2023/12/20 16:17:06;;;;;;;7.70;1.92;;;;;;;6.95;100.00;99768.53;12199463;19;20010;-86
2023/12/20 16:21:08;;;;;;;8.07;1.77;;;;;;;6.98;100.00;99776.28;12221586;19;20078;-85
2023/12/20 16:25:10;;;;;;;4.40;2.40;;;;;;;6.89;100.00;99770.28;12227552;19;20014;-85
2023/12/20 16:29:13;;;;;;;7.13;1.90;;;;;;;6.85;100.00;99774.53;12203091;19;20011;-85
2023/12/20 16:33:15;;;;;;;8.93;2.60;;;;;;;6.89;100.00;99775.75;12220968;19;20014;-86
2023/12/20 16:37:17;;;;;;;6.10;2.20;;;;;;;6.92;100.00;99782.69;12220273;19;20092;-85
2023/12/20 16:41:20;;;;;;;6.90;2.92;;;;;;;6.90;100.00;99790.28;12195646;19;20024;-83
2023/12/20 16:45:22;;;;;;;5.38;2.50;;;;;;;6.97;100.00;99799.28;12216447;19;20011;-84
2023/12/20 16:49:24;;;;;;;7.80;2.00;;;;;;;6.97;100.00;99789.16;12219668;19;20006;-85
2023/12/20 16:53:27;;;;;;;6.23;2.60;;;;;;;7.00;100.00;99787.88;12201825;19;20023;-85
2023/12/20 16:57:29;;;;;;;7.70;2.67;;;;;;;7.02;100.00;99782.97;12231641;19;20025;-84
2023/12/20 17:01:32;;;;;;;8.57;2.40;;;;;;;7.01;100.00;99784.88;12228254;19;20051;-84
2023/12/20 17:05:35;;;;;;;7.55;2.53;;;;;;;7.02;100.00;99775.63;12216971;19;20031;-84
2023/12/20 17:09:36;;;;;;;6.53;2.33;;;;;;;7.00;100.00;99768.69;12236204;19;20006;-85
2023/12/20 17:13:38;;;;;;;5.68;2.40;;;;;;;7.07;100.00;99762.06;12188817;19;20006;-83
2023/12/20 17:17:40;;;;;;;12.50;2.55;;;;;;;7.00;100.00;99755.84;12215908;19;20147;-85
2023/12/20 17:21:45;;;;;;;6.93;2.03;;;;;;;7.04;100.00;99753.47;12219400;19;20011;-83
2023/12/20 17:25:47;;;;;;;10.02;2.25;;;;;;;7.07;100.00;99758.50;12208615;19;20524;-85
2023/12/20 17:29:48;;;;;;;9.45;3.20;;;;;;;7.08;100.00;99771.16;12236419;19;20097;-84
2023/12/20 17:33:50;;;;;;;10.07;2.63;;;;;;;7.07;100.00;99767.53;12234363;19;20139;-84
2023/12/20 17:37:52;;;;;;;9.10;2.55;;;;;;;7.07;100.00;99753.00;12211825;19;20019;-85
2023/12/20 17:41:54;;;;;;;5.90;2.63;;;;;;;7.15;100.00;99760.09;12232811;19;20007;-84
2023/12/20 17:45:57;;;;;;;10.90;2.65;;;;;;;7.14;100.00;99759.25;12229865;19;20078;-85
2023/12/20 17:49:59;;;;;;;8.35;3.13;;;;;;;7.14;100.00;99772.97;12213448;19;20048;-85
2023/12/20 17:54:03;;;;;;;8.20;3.33;;;;;;;7.16;100.00;99768.06;12235709;19;20022;-86
2023/12/20 17:58:05;;;;;;;12.45;2.55;;;;;;;7.17;100.00;99767.03;12233670;19;20010;-85
2023/12/20 18:02:07;;;;;;;4.30;2.55;;;;;;;7.14;100.00;99764.75;12207289;19;20041;-85
2023/12/20 18:06:10;;;;;;;9.10;2.85;;;;;;;7.16;100.00;99770.81;12225458;19;20385;-86
2023/12/20 18:10:12;;;;;;;14.38;2.80;;;;;;;7.20;100.00;99763.84;12240291;19;20381;-85
2023/12/20 18:14:15;;;;;;;10.38;2.80;;;;;;;7.25;100.00;99771.34;12206487;19;20007;-86
2023/12/20 18:18:16;;;;;;;9.68;2.88;;;;;;;7.23;100.00;99766.13;12238769;19;20011;-86
2023/12/20 18:22:20;;;;;;;7.05;2.60;;;;;;;7.25;100.00;99760.38;12231946;19;20101;-86
2023/12/20 18:26:22;;;;;;;5.40;2.78;;;;;;;7.26;100.00;99742.91;12212619;19;20002;-86
2023/12/20 18:30:24;;;;;;;12.35;3.72;;;;;;;7.27;100.00;99745.38;12232850;19;20006;-86
2023/12/20 18:34:26;;;;;;;8.97;3.33;;;;;;;7.26;100.00;99749.22;12229617;19;20070;-84
2023/12/20 18:38:30;;;;;;;8.13;2.90;;;;;;;7.24;100.00;99723.09;12209601;19;20057;-87
2023/12/20 18:42:31;;;;;;;12.70;2.45;;;;;;;7.27;100.00;99731.69;12234215;19;20015;-87
2023/12/20 18:46:34;;;;;;;9.23;2.50;;;;;;;7.27;100.00;99728.94;12218294;19;20013;-86